| time (UTC) | temp F | wind direction | speed MPH | gust MPH | rain 1hr in | rain 24hr in | rain mn in | humidity % | barometer mb |
| 20260508011513 | 60 | 310 | 0.0 | 0.0 | 0.00 | 0.24 | 0.24 | 1 | 1013.6 |
| 20260508010008 | 60 | 310 | 0.0 | 0.0 | 0.00 | 0.24 | 0.24 | 1 | 1013.4 |
| 20260508004503 | 61 | 310 | 0.0 | 0.0 | 0.00 | 0.24 | 0.24 | 1 | 1013.3 |
| 20260508003112 | 62 | 310 | 0.0 | 0.0 | 0.00 | 0.24 | 0.24 | 1 | 1013.1 |
| 20260508001556 | 64 | 310 | 0.0 | 0.0 | 0.00 | 0.24 | 0.24 | 1 | 1012.9 |
| 20260508000051 | 65 | 309 | 0.0 | 0.0 | 0.00 | 0.24 | 0.24 | 1 | 1013.1 |
| 20260507234547 | 66 | 310 | 0.0 | 0.0 | 0.00 | 0.24 | 0.24 | 24 | 1013.1 |
| 20260507233042 | 67 | 310 | 0.0 | 0.0 | 0.00 | 0.24 | 0.24 | 36 | 1013.0 |
| 20260507231540 | 67 | 310 | 0.0 | 0.0 | 0.00 | 0.24 | 0.24 | 57 | 1013.1 |
| 20260507230037 | 67 | 310 | 0.0 | 0.0 | 0.00 | 0.24 | 0.24 | 58 | 1013.1 |
| 20260507224529 | 67 | 300 | 0.0 | 0.0 | 0.00 | 0.24 | 0.24 | 58 | 1013.1 |
| 20260507223025 | 68 | 307 | 0.0 | 0.0 | 0.00 | 0.24 | 0.24 | 58 | 1013.1 |
| 20260507221521 | 69 | 310 | 0.0 | 0.0 | 0.00 | 0.24 | 0.24 | 56 | 1012.7 |
| 20260507220015 | 70 | 17 | 0.0 | 5.0 | 0.00 | 0.24 | 0.24 | 57 | 1012.5 |
| 20260507214511 | 70 | 348 | 0.0 | 5.0 | 0.00 | 0.24 | 0.24 | 56 | 1012.5 |
| 20260507213015 | 70 | 353 | 0.0 | 0.0 | 0.00 | 0.24 | 0.24 | 57 | 1012.2 |
| 20260507211510 | 70 | 308 | 0.0 | 0.0 | 0.00 | 0.24 | 0.24 | 57 | 1012.3 |
| 20260507210005 | 70 | 323 | 0.0 | 0.0 | 0.00 | 0.24 | 0.24 | 57 | 1012.3 |
| 20260507204501 | 70 | 290 | 0.0 | 0.0 | 0.00 | 0.24 | 0.24 | 55 | 1012.3 |
| 20260507203057 | 70 | 300 | 0.0 | 0.0 | 0.00 | 0.24 | 0.24 | 57 | 1012.5 |
| 20260507201552 | 69 | 353 | 0.0 | 0.0 | 0.00 | 0.24 | 0.24 | 56 | 1012.8 |
| 20260507200047 | 69 | 317 | 0.0 | 6.0 | 0.00 | 0.24 | 0.24 | 57 | 1013.0 |
| 20260507194546 | 70 | 309 | 0.0 | 5.0 | 0.00 | 0.35 | 0.24 | 56 | 1013.3 |
| 20260507193039 | 69 | 276 | 0.0 | 9.0 | 0.00 | 0.35 | 0.24 | 56 | 1013.3 |
| 20260507191535 | 69 | 309 | 0.0 | 0.0 | 0.00 | 0.35 | 0.24 | 56 | 1013.5 |
| 20260507190037 | 69 | 270 | 0.0 | 3.0 | 0.00 | 0.35 | 0.24 | 58 | 1013.4 |
| 20260507184536 | 69 | 302 | 0.0 | 5.0 | 0.00 | 0.35 | 0.24 | 56 | 1013.3 |
| 20260507183022 | 68 | 311 | 0.0 | 8.0 | 0.00 | 0.35 | 0.24 | 58 | 1013.5 |
| 20260507181517 | 67 | 351 | 0.0 | 7.0 | 0.00 | 0.35 | 0.24 | 58 | 1013.5 |
| 20260507180013 | 66 | 71 | 0.0 | 0.0 | 0.00 | 0.35 | 0.24 | 58 | 1013.5 |
| 20260507174510 | 66 | 300 | 0.0 | 2.0 | 0.00 | 0.35 | 0.24 | 59 | 1013.8 |
| 20260507173004 | 65 | 64 | 0.0 | 9.0 | 0.00 | 0.35 | 0.24 | 56 | 1014.0 |
| 20260507171604 | 64 | 289 | 0.0 | 0.0 | 0.00 | 0.35 | 0.24 | 56 | 1013.8 |
| 20260507170055 | 64 | 117 | 0.0 | 5.0 | 0.00 | 0.35 | 0.24 | 56 | 1013.9 |
| 20260507164552 | 64 | 58 | 0.0 | 4.0 | 0.00 | 0.35 | 0.24 | 51 | 1014.2 |
| 20260507163046 | 63 | 75 | 0.0 | 9.0 | 0.00 | 0.35 | 0.24 | 57 | 1014.2 |
| 20260507161542 | 64 | 319 | 2.0 | 8.0 | 0.00 | 0.35 | 0.24 | 54 | 1014.6 |
| 20260507160039 | 64 | 297 | 2.0 | 12.0 | 0.00 | 0.35 | 0.24 | 53 | 1014.9 |
| 20260507154537 | 63 | 274 | 2.0 | 12.0 | 0.00 | 0.35 | 0.24 | 48 | 1014.8 |
| 20260507153028 | 63 | 321 | 6.0 | 11.0 | 0.00 | 0.35 | 0.24 | 48 | 1014.5 |
| 20260507151524 | 63 | 323 | 0.0 | 9.0 | 0.00 | 0.35 | 0.24 | 33 | 1014.5 |
| 20260507150019 | 61 | 322 | 0.0 | 3.0 | 0.00 | 0.35 | 0.24 | 17 | 1014.4 |
| 20260507144514 | 61 | 312 | 0.0 | 4.0 | 0.00 | 0.35 | 0.24 | 17 | 1014.3 |
| 20260507143010 | 59 | 70 | 1.0 | 8.0 | 0.00 | 0.35 | 0.24 | 1 | 1014.2 |
| 20260507141506 | 58 | 70 | 3.0 | 10.0 | 0.00 | 0.35 | 0.24 | 1 | 1014.0 |
| 20260507140002 | 58 | 318 | 2.0 | 9.0 | 0.00 | 0.35 | 0.24 | 1 | 1013.9 |
| 20260507134557 | 57 | 350 | 0.0 | 10.0 | 0.00 | 0.35 | 0.24 | 1 | 1014.1 |
| 20260507133053 | 57 | 352 | 1.0 | 10.0 | 0.00 | 0.35 | 0.24 | 1 | 1014.3 |
| 20260507131601 | 56 | 327 | 0.0 | 1.0 | 0.00 | 0.35 | 0.24 | 1 | 1014.1 |
| 20260507130051 | 56 | 309 | 0.0 | 0.0 | 0.00 | 0.35 | 0.24 | 1 | 1013.9 |
| 20260507124546 | 56 | 331 | 0.0 | 4.0 | 0.00 | 0.35 | 0.24 | 1 | 1013.6 |
| 20260507123047 | 55 | 328 | 0.0 | 7.0 | 0.00 | 0.35 | 0.24 | 1 | 1013.3 |
| 20260507121540 | 55 | 326 | 0.0 | 0.0 | 0.00 | 0.35 | 0.24 | 1 | 1012.9 |
| 20260507120027 | 55 | 5 | 0.0 | 0.0 | 0.00 | 0.35 | 0.24 | 1 | 1012.7 |
| 20260507114522 | 55 | 330 | 0.0 | 0.0 | 0.00 | 0.35 | 0.24 | 1 | 1012.5 |
| 20260507113030 | 55 | 15 | 0.0 | 0.0 | 0.00 | 0.35 | 0.24 | 1 | 1012.4 |
| 20260507111521 | 55 | 302 | 0.0 | 0.0 | 0.01 | 0.35 | 0.24 | 1 | 1012.1 |
| 20260507110009 | 55 | 306 | 0.0 | 0.0 | 0.03 | 0.35 | 0.24 | 1 | 1012.1 |
| 20260507104505 | 55 | 326 | 0.0 | 0.0 | 0.03 | 0.35 | 0.24 | 1 | 1012.2 |
| 20260507103001 | 55 | 315 | 0.0 | 0.0 | 0.03 | 0.35 | 0.24 | 1 | 1011.6 |
| 20260507101557 | 56 | 245 | 0.0 | 6.0 | 0.02 | 0.34 | 0.23 | 1 | 1011.5 |
| 20260507100051 | 56 | 309 | 0.0 | 0.0 | 0.00 | 0.32 | 0.21 | 1 | 1011.7 |
| 20260507094552 | 56 | 312 | 4.0 | 11.0 | 0.06 | 0.32 | 0.21 | 1 | 1011.2 |
| 20260507093042 | 56 | 310 | 0.0 | 0.0 | 0.20 | 0.32 | 0.21 | 1 | 1011.1 |
| 20260507091538 | 56 | 296 | 0.0 | 2.0 | 0.20 | 0.32 | 0.21 | 1 | 1011.5 |
| 20260507090034 | 57 | 350 | 0.0 | 9.0 | 0.20 | 0.32 | 0.21 | 1 | 1011.0 |
| 20260507084529 | 58 | 78 | 2.0 | 20.0 | 0.13 | 0.25 | 0.14 | 1 | 1013.3 |
| 20260507083035 | 58 | 82 | 0.0 | 0.0 | 0.00 | 0.12 | 0.01 | 1 | 1009.8 |
| 20260507081522 | 58 | 316 | 0.0 | 0.0 | 0.00 | 0.12 | 0.01 | 1 | 1010.8 |
| 20260507080015 | 58 | 316 | 0.0 | 0.0 | 0.01 | 0.12 | 0.01 | 1 | 1011.1 |
| 20260507074524 | 58 | 110 | 0.0 | 0.0 | 0.01 | 0.12 | 0.01 | 1 | 1010.8 |
| 20260507073007 | 57 | 297 | 0.0 | 1.0 | 0.01 | 0.12 | 0.01 | 1 | 1011.4 |
| 20260507071504 | 57 | 276 | 0.0 | 0.0 | 0.01 | 0.12 | 0.01 | 1 | 1011.7 |
| 20260507070101 | 57 | 301 | 0.0 | 12.0 | 0.00 | 0.11 | 0.00 | 1 | 1011.4 |
| 20260507064557 | 57 | 307 | 0.0 | 10.0 | 0.00 | 0.11 | 0.00 | 1 | 1011.2 |
| 20260507063054 | 57 | 319 | 0.0 | 1.0 | 0.00 | 0.11 | 0.00 | 1 | 1010.8 |
| 20260507061546 | 57 | 333 | 1.0 | 5.0 | 0.00 | 0.11 | 0.00 | 1 | 1011.0 |
| 20260507060040 | 58 | 311 | 0.0 | 0.0 | 0.00 | 0.11 | 0.00 | 1 | 1011.3 |
| 20260507054541 | 58 | 46 | 0.0 | 0.0 | 0.00 | 0.11 | 0.00 | 1 | 1011.7 |
| 20260507053032 | 58 | 301 | 0.0 | 5.0 | 0.00 | 0.11 | 0.00 | 1 | 1011.5 |
| 20260507051528 | 58 | 20 | 0.0 | 10.0 | 0.00 | 0.11 | 0.00 | 1 | 1011.4 |
| 20260507050023 | 58 | 42 | 0.0 | 0.0 | 0.00 | 0.11 | 0.00 | 1 | 1010.9 |
| 20260507044519 | 58 | 338 | 0.0 | 9.0 | 0.00 | 0.11 | 0.00 | 1 | 1011.2 |
| 20260507043014 | 58 | 329 | 0.0 | 9.0 | 0.00 | 0.11 | 0.00 | 1 | 1011.2 |
| 20260507041510 | 59 | 320 | 1.0 | 6.0 | 0.00 | 0.11 | 0.00 | 1 | 1011.0 |
| 20260507040005 | 59 | 327 | 0.0 | 0.0 | 0.00 | 0.11 | 0.00 | 1 | 1011.4 |
| 20260507034502 | 59 | 79 | 0.0 | 0.0 | 0.00 | 0.11 | 0.00 | 1 | 1011.2 |
| 20260507033058 | 59 | 314 | 0.0 | 0.0 | 0.00 | 0.11 | 0.00 | 1 | 1011.4 |
| 20260507031556 | 59 | 335 | 0.0 | 10.0 | 0.00 | 0.11 | 0.00 | 1 | 1011.5 |
| 20260507030053 | 59 | 96 | 0.0 | 7.0 | 0.00 | 0.11 | 0.00 | 1 | 1011.3 |
| 20260507024543 | 59 | 345 | 0.0 | 0.0 | 0.00 | 0.11 | 0.00 | 1 | 1011.1 |
| 20260507023038 | 59 | 335 | 0.0 | 0.0 | 0.00 | 0.11 | 0.00 | 1 | 1010.9 |
| 20260507021534 | 60 | 303 | 0.0 | 0.0 | 0.00 | 0.11 | 0.00 | 1 | 1010.7 |
| 20260507020033 | 60 | 27 | 0.0 | 8.0 | 0.00 | 0.11 | 0.00 | 1 | 1010.3 |
| 20260507014525 | 60 | 351 | 0.0 | 3.0 | 0.00 | 0.11 | 0.00 | 1 | 1010.3 |
| 20260507013030 | 60 | 299 | 0.0 | 8.0 | 0.00 | 0.11 | 0.00 | 1 | 1009.5 |